createdAt,value
2018-04-07T00:02:28.830Z,97665.44
2018-04-07T00:04:57.059Z,97668.61
2018-04-07T00:07:25.402Z,97662.95
2018-04-07T00:09:53.675Z,97673.09
2018-04-07T00:12:21.904Z,97672.28
2018-04-07T00:14:50.160Z,97670.48
2018-04-07T00:17:18.413Z,97675.18
2018-04-07T00:19:46.682Z,97668.75
2018-04-07T00:22:14.964Z,97659.11
2018-04-07T00:24:43.217Z,97661.91
2018-04-07T00:27:11.501Z,97654.05
2018-04-07T00:29:40.507Z,97654.67
2018-04-07T00:32:09.510Z,97659.36
2018-04-07T00:34:38.526Z,97654.73
2018-04-07T00:37:06.772Z,97659.53
2018-04-07T00:39:35.027Z,97662.27
2018-04-07T00:42:03.275Z,97656.22
2018-04-07T00:44:32.270Z,97665.41
2018-04-07T00:47:01.956Z,97656.98
2018-04-07T00:49:30.169Z,97652.86
2018-04-07T00:51:58.418Z,97656.51
2018-04-07T00:54:26.644Z,97655.86
2018-04-07T00:56:54.902Z,97657.19
2018-04-07T00:59:23.161Z,97656.81
2018-04-07T01:01:52.175Z,97653.34
2018-04-07T01:04:20.410Z,97653.83
2018-04-07T01:06:48.652Z,97653.97
2018-04-07T01:09:16.924Z,97656.25
2018-04-07T01:11:45.168Z,97648.02
2018-04-07T01:14:13.441Z,97639.98
2018-04-07T01:16:41.702Z,97642.64
2018-04-07T01:19:09.944Z,97647.29
2018-04-07T01:21:38.180Z,97643.77
2018-04-07T01:24:07.197Z,97642.28
2018-04-07T01:26:35.448Z,97640.66
2018-04-07T01:29:04.476Z,97649.19
2018-04-07T01:31:33.596Z,97645.30
2018-04-07T01:34:01.831Z,97651.18
2018-04-07T01:36:30.060Z,97646.88
2018-04-07T01:38:59.064Z,97649.26
2018-04-07T01:41:27.301Z,97646.88
2018-04-07T01:43:55.561Z,97647.28
2018-04-07T01:46:23.834Z,97641.55
2018-04-07T01:48:52.091Z,97638.47
2018-04-07T01:51:20.320Z,97642.09
2018-04-07T01:53:49.329Z,97640.30
2018-04-07T01:56:17.598Z,97637.89
2018-04-07T01:58:46.613Z,97642.97
2018-04-07T02:01:15.616Z,97644.78
2018-04-07T02:03:44.737Z,97643.20
2018-04-07T02:06:12.974Z,97636.63
2018-04-07T02:08:41.237Z,97636.69
2018-04-07T02:11:09.477Z,97625.63
2018-04-07T02:13:37.736Z,97630.95
2018-04-07T02:16:05.966Z,97624.55
2018-04-07T02:18:34.976Z,97620.16
2018-04-07T02:21:03.220Z,97619.81
2018-04-07T02:23:31.467Z,97622.03
2018-04-07T02:26:01.221Z,97613.94
2018-04-07T02:28:29.504Z,97611.44
2018-04-07T02:30:58.667Z,97624.02
2018-04-07T02:33:27.688Z,97611.66
2018-04-07T02:35:56.803Z,97604.11
2018-04-07T02:38:25.042Z,97602.56
2018-04-07T02:40:54.061Z,97606.11
2018-04-07T02:43:22.295Z,97603.86
2018-04-07T02:45:50.565Z,97601.27
2018-04-07T02:48:19.553Z,97602.83
2018-04-07T02:50:48.577Z,97610.74
2018-04-07T02:53:16.829Z,97601.49
2018-04-07T02:55:45.104Z,97601.02
2018-04-07T02:58:13.337Z,97595.86
2018-04-07T03:00:42.388Z,97606.92
2018-04-07T03:03:10.648Z,97609.39
2018-04-07T03:05:38.892Z,97604.22
2018-04-07T03:08:07.126Z,97606.34
2018-04-07T03:10:35.367Z,97616.23
2018-04-07T03:13:03.599Z,97612.63
2018-04-07T03:15:32.641Z,97613.78
2018-04-07T03:18:01.790Z,97611.52
2018-04-07T03:20:30.830Z,97622.38
2018-04-07T03:22:59.059Z,97618.26
2018-04-07T03:25:27.306Z,97625.67
2018-04-07T03:27:55.553Z,97628.01
2018-04-07T03:30:23.784Z,97631.04
2018-04-07T03:32:52.034Z,97619.42
2018-04-07T03:35:20.332Z,97616.21
2018-04-07T03:37:50.120Z,97617.76
2018-04-07T03:40:18.371Z,97612.52
2018-04-07T03:42:46.614Z,97621.47
2018-04-07T03:45:14.890Z,97625.16
2018-04-07T03:47:43.196Z,97618.59
2018-04-07T03:50:11.507Z,97619.36
2018-04-07T03:52:40.516Z,97619.07
2018-04-07T03:55:10.304Z,97619.88
2018-04-07T03:57:38.556Z,97615.89
2018-04-07T04:00:06.839Z,97614.30
2018-04-07T04:02:36.228Z,97621.41
2018-04-07T04:05:04.471Z,97628.04
2018-04-07T04:07:32.721Z,97630.40
2018-04-07T04:10:01.728Z,97627.52
2018-04-07T04:12:30.017Z,97625.92
2018-04-07T04:14:59.018Z,97622.13
2018-04-07T04:17:27.349Z,97619.53
2018-04-07T04:19:55.585Z,97626.13
2018-04-07T04:22:24.619Z,97623.13
2018-04-07T04:24:53.625Z,97617.17
2018-04-07T04:27:21.892Z,97614.20
2018-04-07T04:29:50.901Z,97619.81
2018-04-07T04:32:19.905Z,97614.20
2018-04-07T04:34:48.913Z,97617.50
2018-04-07T04:37:17.951Z,97621.72
2018-04-07T04:39:46.184Z,97624.42
2018-04-07T04:42:14.465Z,97619.28
2018-04-07T04:44:42.722Z,97619.42
2018-04-07T04:47:11.007Z,97626.38
2018-04-07T04:49:39.248Z,97628.81
2018-04-07T04:52:08.274Z,97634.53
2018-04-07T04:54:37.269Z,97637.98
2018-04-07T04:57:06.314Z,97635.92
2018-04-07T04:59:34.566Z,97642.86
2018-04-07T05:02:03.591Z,97648.00
2018-04-07T05:04:31.933Z,97642.17
2018-04-07T05:07:00.610Z,97647.39
2018-04-07T05:09:28.841Z,97644.52
2018-04-07T05:11:57.860Z,97643.03
2018-04-07T05:14:26.865Z,97643.47
2018-04-07T05:16:55.892Z,97640.66
2018-04-07T05:19:24.130Z,97640.41
2018-04-07T05:21:52.361Z,97642.64
2018-04-07T05:24:20.609Z,97638.02
2018-04-07T05:26:48.848Z,97641.70
2018-04-07T05:29:17.106Z,97628.67
2018-04-07T05:31:46.130Z,97640.98
2018-04-07T05:34:15.126Z,97636.28
2018-04-07T05:36:44.137Z,97635.66
2018-04-07T05:39:13.189Z,97637.62
2018-04-07T05:41:41.446Z,97638.13
2018-04-07T05:44:09.732Z,97638.34
2018-04-07T05:46:38.729Z,97636.83
2018-04-07T05:49:07.774Z,97634.50
2018-04-07T05:51:36.003Z,97644.56
2018-04-07T05:54:04.263Z,97643.41
2018-04-07T05:56:32.500Z,97653.33
2018-04-07T05:59:01.535Z,97647.82
2018-04-07T06:01:30.546Z,97646.53
2018-04-07T06:03:58.806Z,97647.80
2018-04-07T06:06:27.809Z,97652.52
2018-04-07T06:08:56.069Z,97641.66
2018-04-07T06:11:24.496Z,97646.26
2018-04-07T06:13:54.292Z,97648.52
2018-04-07T06:16:23.565Z,97647.83
2018-04-07T06:18:59.968Z,97651.02
2018-04-07T06:21:29.499Z,97651.39
2018-04-07T06:23:58.390Z,97645.52
2018-04-07T06:26:27.731Z,97641.12
2018-04-07T06:28:56.772Z,97636.56
2018-04-07T06:31:25.026Z,97640.39
2018-04-07T06:33:53.281Z,97636.23
2018-04-07T06:36:23.625Z,97634.09
2018-04-07T06:38:51.949Z,97639.16
2018-04-07T06:41:20.189Z,97640.27
2018-04-07T06:43:49.205Z,97632.39
2018-04-07T06:46:19.227Z,97636.08
2018-04-07T06:48:47.618Z,97630.32
2018-04-07T06:51:16.626Z,97628.34
2018-04-07T06:53:44.919Z,97633.55
2018-04-07T06:56:13.194Z,97621.99
2018-04-07T06:58:41.437Z,97627.12
2018-04-07T07:01:09.695Z,97627.64
2018-04-07T07:03:37.933Z,97625.58
2018-04-07T07:06:06.205Z,97631.16
2018-04-07T07:08:34.462Z,97628.72
2018-04-07T07:11:02.744Z,97623.53
2018-04-07T07:13:30.984Z,97622.17
2018-04-07T07:15:59.249Z,97622.44
2018-04-07T07:18:28.257Z,97619.14
2018-04-07T07:20:56.525Z,97617.77
2018-04-07T07:23:24.771Z,97622.25
2018-04-07T07:25:53.840Z,97622.82
2018-04-07T07:28:22.096Z,97620.85
2018-04-07T07:30:51.515Z,97620.72
2018-04-07T07:33:19.768Z,97627.15
2018-04-07T07:35:48.815Z,97620.69
2018-04-07T07:38:17.062Z,97613.09
2018-04-07T07:40:45.334Z,97620.70
2018-04-07T07:43:13.591Z,97615.27
2018-04-07T07:45:42.076Z,97606.11
2018-04-07T07:48:10.410Z,97608.27
2018-04-07T07:50:38.676Z,97615.89
2018-04-07T07:53:06.934Z,97616.39
2018-04-07T07:55:35.222Z,97617.44
2018-04-07T07:58:03.471Z,97612.97
2018-04-07T08:00:31.741Z,97615.64
2018-04-07T08:02:59.996Z,97613.38
2018-04-07T08:05:28.259Z,97615.13
2018-04-07T08:07:57.264Z,97614.19
2018-04-07T08:10:26.305Z,97610.43
2018-04-07T08:12:54.573Z,97609.09
2018-04-07T08:15:22.844Z,97606.59
2018-04-07T08:17:51.860Z,97610.13
2018-04-07T08:20:20.908Z,97609.75
2018-04-07T08:22:49.141Z,97613.31
2018-04-07T08:25:18.193Z,97606.28
2018-04-07T08:27:46.438Z,97612.94
2018-04-07T08:30:14.750Z,97610.82
2018-04-07T08:32:43.857Z,97610.52
2018-04-07T08:35:12.877Z,97611.41
2018-04-07T08:37:41.158Z,97604.47
2018-04-07T08:40:09.406Z,97611.56
2018-04-07T08:42:38.423Z,97606.50
2018-04-07T08:45:06.672Z,97597.48
2018-04-07T08:47:34.943Z,97601.41
2018-04-07T08:50:03.204Z,97595.94
2018-04-07T08:52:31.452Z,97589.34
2018-04-07T08:54:59.721Z,97602.86
2018-04-07T08:57:28.014Z,97604.57
2018-04-07T08:59:56.261Z,97601.88
2018-04-07T09:02:25.661Z,97601.92
2018-04-07T09:04:53.939Z,97602.70
2018-04-07T09:07:22.192Z,97603.14
2018-04-07T09:09:50.444Z,97600.31
2018-04-07T09:12:19.496Z,97596.37
2018-04-07T09:14:47.773Z,97598.88
2018-04-07T09:17:16.044Z,97600.41
2018-04-07T09:19:44.301Z,97596.22
2018-04-07T09:22:13.346Z,97595.35
2018-04-07T09:24:41.591Z,97591.70
2018-04-07T09:27:10.620Z,97588.94
2018-04-07T09:29:39.656Z,97590.36
2018-04-07T09:32:07.973Z,97583.63
2018-04-07T09:34:36.202Z,97587.34
2018-04-07T09:37:05.224Z,97584.98
2018-04-07T09:39:33.479Z,97583.24
2018-04-07T09:42:01.819Z,97587.48
2018-04-07T09:44:30.048Z,97586.08
2018-04-07T09:46:58.389Z,97592.95
2018-04-07T09:49:26.637Z,97593.64
2018-04-07T09:51:54.894Z,97596.12
2018-04-07T09:54:23.905Z,97589.95
2018-04-07T09:56:52.186Z,97589.58
2018-04-07T09:59:20.422Z,97591.43
2018-04-07T10:01:48.688Z,97587.48
2018-04-07T10:04:16.941Z,97592.87
2018-04-07T10:06:45.229Z,97584.68
2018-04-07T10:09:13.489Z,97577.83
2018-04-07T10:11:42.520Z,97579.31
2018-04-07T10:14:10.781Z,97580.69
2018-04-07T10:16:39.796Z,97587.06
2018-04-07T10:19:08.820Z,97583.21
2018-04-07T10:21:37.089Z,97589.52
2018-04-07T10:24:06.087Z,97587.44
2018-04-07T10:26:35.122Z,97583.40
2018-04-07T10:29:03.400Z,97582.66
2018-04-07T10:31:31.685Z,97583.86
2018-04-07T10:34:00.729Z,97578.98
2018-04-07T10:36:29.745Z,97581.39
2018-04-07T10:38:57.984Z,97571.77
2018-04-07T10:41:27.035Z,97566.25
2018-04-07T10:43:55.344Z,97566.72
2018-04-07T10:46:23.612Z,97564.44
2018-04-07T10:48:51.847Z,97567.40
2018-04-07T10:51:20.876Z,97557.16
2018-04-07T10:53:49.899Z,97565.00
2018-04-07T10:56:18.153Z,97560.77
2018-04-07T10:58:46.405Z,97562.55
2018-04-07T11:01:14.700Z,97563.54
2018-04-07T11:03:43.003Z,97560.86
2018-04-07T11:06:11.314Z,97555.25
2018-04-07T11:08:39.535Z,97558.16
2018-04-07T11:11:08.532Z,97552.67
2018-04-07T11:13:36.790Z,97556.92
2018-04-07T11:16:05.823Z,97554.30
2018-04-07T11:18:34.064Z,97555.39
2018-04-07T11:21:02.322Z,97550.66
2018-04-07T11:23:30.683Z,97555.63
2018-04-07T11:25:58.969Z,97541.40
2018-04-07T11:28:27.999Z,97549.20
2018-04-07T11:30:56.283Z,97541.27
2018-04-07T11:33:24.543Z,97534.71
2018-04-07T11:35:53.655Z,97533.92
2018-04-07T11:38:22.705Z,97529.07
2018-04-07T11:40:50.945Z,97527.80
2018-04-07T11:43:19.195Z,97517.93
2018-04-07T11:45:47.450Z,97522.30
2018-04-07T11:48:15.737Z,97516.25
2018-04-07T11:50:44.046Z,97511.89
2018-04-07T11:53:12.345Z,97508.87
2018-04-07T11:55:40.545Z,97509.52
2018-04-07T11:58:08.816Z,97505.48
2018-04-07T12:00:37.980Z,97505.48
2018-04-07T12:03:07.017Z,97494.37
2018-04-07T12:05:35.276Z,97489.83
2018-04-07T12:08:04.678Z,97484.14
2018-04-07T12:10:33.025Z,97476.20
2018-04-07T12:13:01.271Z,97480.05
2018-04-07T12:15:30.280Z,97475.36
2018-04-07T12:17:59.349Z,97469.54
2018-04-07T12:20:27.600Z,97462.92
2018-04-07T12:22:55.844Z,97468.95
2018-04-07T12:25:24.148Z,97456.86
2018-04-07T12:27:53.161Z,97462.78
2018-04-07T12:30:22.186Z,97463.55
2018-04-07T12:32:51.299Z,97456.25
2018-04-07T12:35:19.549Z,97461.80
2018-04-07T12:37:47.869Z,97459.89
2018-04-07T12:40:16.208Z,97461.77
2018-04-07T12:42:44.766Z,97458.08
2018-04-07T12:45:13.068Z,97453.55
2018-04-07T12:47:41.320Z,97451.45
2018-04-07T12:50:10.344Z,97446.47
2018-04-07T12:52:38.633Z,97447.22
2018-04-07T12:55:07.650Z,97443.67
2018-04-07T12:57:36.661Z,97443.13
2018-04-07T13:00:04.914Z,97434.19
2018-04-07T13:02:33.958Z,97434.50
2018-04-07T13:05:02.240Z,97431.06
2018-04-07T13:07:30.486Z,97428.23
2018-04-07T13:09:59.526Z,97433.34
2018-04-07T13:12:27.779Z,97416.27
2018-04-07T13:14:56.036Z,97413.06
2018-04-07T13:17:24.300Z,97412.35
2018-04-07T13:19:52.561Z,97412.03
2018-04-07T13:22:21.574Z,97411.94
2018-04-07T13:24:50.604Z,97407.98
2018-04-07T13:27:18.893Z,97406.52
2018-04-07T13:29:47.889Z,97397.55
2018-04-07T13:32:16.177Z,97393.63
2018-04-07T13:34:44.455Z,97395.16
2018-04-07T13:37:13.466Z,97383.37
2018-04-07T13:39:42.585Z,97389.55
2018-04-07T13:42:10.821Z,97388.19
2018-04-07T13:44:39.078Z,97381.45
2018-04-07T13:47:07.321Z,97377.99
2018-04-07T13:49:36.345Z,97375.83
2018-04-07T13:52:05.696Z,97369.69
2018-04-07T13:54:33.959Z,97375.00
2018-04-07T13:57:02.208Z,97366.38
2018-04-07T13:59:30.453Z,97367.08
2018-04-07T14:01:58.758Z,97359.06
2018-04-07T14:04:27.042Z,97364.64
2018-04-07T14:06:55.286Z,97352.95
2018-04-07T14:09:24.293Z,97350.63
2018-04-07T14:11:53.339Z,97350.67
2018-04-07T14:14:21.602Z,97346.30
2018-04-07T14:16:50.700Z,97339.30
2018-04-07T14:19:18.891Z,97339.83
2018-04-07T14:21:47.934Z,97331.29
2018-04-07T14:24:16.181Z,97332.52
2018-04-07T14:26:45.229Z,97324.97
2018-04-07T14:29:13.482Z,97333.81
2018-04-07T14:31:42.512Z,97331.87
2018-04-07T14:34:10.751Z,97323.83
2018-04-07T14:36:39.782Z,97324.00
2018-04-07T14:39:08.789Z,97322.40
2018-04-07T14:41:37.833Z,97329.42
2018-04-07T14:44:06.081Z,97325.28
2018-04-07T14:46:35.190Z,97317.31
2018-04-07T14:49:04.196Z,97320.40
2018-04-07T14:51:33.213Z,97310.81
2018-04-07T14:54:01.469Z,97319.33
2018-04-07T14:56:29.715Z,97315.58
2018-04-07T14:58:57.956Z,97318.08
2018-04-07T15:01:26.976Z,97321.32
2018-04-07T15:03:56.089Z,97314.39
2018-04-07T15:06:25.101Z,97317.41
2018-04-07T15:08:54.108Z,97310.70
2018-04-07T15:11:23.128Z,97299.48
2018-04-07T15:13:51.367Z,97306.08
2018-04-07T15:16:19.623Z,97301.28
2018-04-07T15:18:47.872Z,97306.78
2018-04-07T15:21:16.912Z,97299.30
2018-04-07T15:23:45.169Z,97296.82
2018-04-07T15:26:14.189Z,97298.75
2018-04-07T15:28:42.442Z,97300.45
2018-04-07T15:31:10.697Z,97290.88
2018-04-07T15:33:38.932Z,97291.45
2018-04-07T15:36:07.932Z,97292.28
2018-04-07T15:38:36.948Z,97291.31
2018-04-07T15:41:05.968Z,97289.77
2018-04-07T15:43:35.088Z,97295.16
2018-04-07T15:46:03.333Z,97300.73
2018-04-07T15:48:31.664Z,97286.48
2018-04-07T15:50:59.929Z,97289.96
2018-04-07T15:53:28.190Z,97296.34
2018-04-07T15:55:56.462Z,97285.66
2018-04-07T15:58:24.760Z,97286.51
2018-04-07T16:00:53.014Z,97273.91
2018-04-07T16:03:21.288Z,97274.20
2018-04-07T16:05:50.299Z,97269.05
2018-04-07T16:08:18.565Z,97272.76
2018-04-07T16:10:47.572Z,97268.34
2018-04-07T16:13:15.844Z,97269.17
2018-04-07T16:15:44.098Z,97272.11
2018-04-07T16:18:12.378Z,97265.70
2018-04-07T16:20:40.625Z,97263.22
2018-04-07T16:23:09.649Z,97272.73
2018-04-07T16:25:37.888Z,97268.14
2018-04-07T16:28:06.139Z,97260.02
2018-04-07T16:30:34.387Z,97253.20
2018-04-07T16:33:02.652Z,97261.69
2018-04-07T16:35:30.903Z,97258.27
2018-04-07T16:37:59.179Z,97255.82
2018-04-07T16:40:28.185Z,97261.27
2018-04-07T16:42:57.205Z,97254.23
2018-04-07T16:45:25.515Z,97255.55
2018-04-07T16:47:53.758Z,97255.95
2018-04-07T16:50:22.761Z,97256.04
2018-04-07T16:52:52.546Z,97250.11
2018-04-07T16:55:20.793Z,97248.91
2018-04-07T16:57:50.576Z,97244.33
2018-04-07T17:00:18.825Z,97248.09
2018-04-07T17:02:47.100Z,97246.86
2018-04-07T17:05:16.097Z,97252.06
2018-04-07T17:07:45.140Z,97250.41
2018-04-07T17:10:13.382Z,97245.78
2018-04-07T17:12:42.432Z,97251.89
2018-04-07T17:15:10.679Z,97253.45
2018-04-07T17:17:40.450Z,97249.76
2018-04-07T17:20:08.684Z,97244.16
2018-04-07T17:22:37.823Z,97251.13
2018-04-07T17:25:06.092Z,97246.09
2018-04-07T17:27:35.105Z,97244.89
2018-04-07T17:30:04.132Z,97243.06
2018-04-07T17:32:32.385Z,97236.25
2018-04-07T17:35:00.673Z,97232.42
2018-04-07T17:37:28.908Z,97230.58
2018-04-07T17:39:57.957Z,97236.88
2018-04-07T17:42:26.196Z,97231.48
2018-04-07T17:44:54.476Z,97228.88
2018-04-07T17:47:22.740Z,97225.27
2018-04-07T17:49:52.007Z,97231.41
2018-04-07T17:52:21.793Z,97229.05
2018-04-07T17:54:50.053Z,97235.45
2018-04-07T17:57:18.287Z,97238.30
2018-04-07T17:59:47.309Z,97252.14
2018-04-07T18:02:15.556Z,97253.80
2018-04-07T18:04:44.609Z,97252.84
2018-04-07T18:07:12.850Z,97261.27
2018-04-07T18:09:42.677Z,97255.39
2018-04-07T18:12:11.832Z,97260.61
2018-04-07T18:14:40.093Z,97260.18
2018-04-07T18:17:08.373Z,97252.63
2018-04-07T18:19:36.627Z,97256.43
2018-04-07T18:22:04.902Z,97255.53
2018-04-07T18:24:33.180Z,97247.42
2018-04-07T18:27:01.469Z,97250.63
2018-04-07T18:29:29.733Z,97259.61
2018-04-07T18:31:58.801Z,97250.78
2018-04-07T18:34:27.820Z,97259.03
2018-04-07T18:36:56.841Z,97256.66
2018-04-07T18:39:25.131Z,97260.30
2018-04-07T18:41:53.384Z,97262.13
2018-04-07T18:44:21.637Z,97264.09
2018-04-07T18:46:49.894Z,97263.30
2018-04-07T18:49:18.152Z,97268.62
2018-04-07T18:51:46.425Z,97276.23
2018-04-07T18:54:14.680Z,97271.09
2018-04-07T18:56:42.978Z,97271.21
2018-04-07T18:59:11.252Z,97275.97
2018-04-07T19:01:39.530Z,97280.92
2018-04-07T19:04:08.604Z,97288.78
2018-04-07T19:06:36.849Z,97289.40
2018-04-07T19:09:07.965Z,97288.66
2018-04-07T19:11:36.990Z,97291.73
2018-04-07T19:14:05.220Z,97292.23
2018-04-07T19:16:34.242Z,97294.21
2018-04-07T19:19:02.497Z,97298.34
2018-04-07T19:21:30.756Z,97294.27
2018-04-07T19:23:59.769Z,97295.08
2018-04-07T19:26:28.823Z,97295.52
2018-04-07T19:28:57.061Z,97295.91
2018-04-07T19:31:25.322Z,97297.24
2018-04-07T19:33:53.573Z,97296.87
2018-04-07T19:36:21.838Z,97295.30
2018-04-07T19:38:50.062Z,97301.56
2018-04-07T19:41:18.396Z,97307.50
2018-04-07T19:43:46.579Z,97303.13
2018-04-07T19:46:14.853Z,97298.97
2018-04-07T19:48:43.109Z,97304.47
2018-04-07T19:51:11.387Z,97303.53
2018-04-07T19:53:39.636Z,97301.92
2018-04-07T19:56:08.659Z,97305.38
2018-04-07T19:58:36.930Z,97313.23
2018-04-07T20:01:05.944Z,97311.30
2018-04-07T20:03:34.195Z,97314.73
2018-04-07T20:06:02.460Z,97313.44
2018-04-07T20:08:30.723Z,97315.00
2018-04-07T20:10:58.964Z,97309.34
2018-04-07T20:13:27.251Z,97312.02
2018-04-07T20:15:55.498Z,97305.19
2018-04-07T20:18:23.767Z,97304.99
2018-04-07T20:20:52.813Z,97306.27
2018-04-07T20:23:21.160Z,97301.97
2018-04-07T20:25:50.189Z,97305.25
2018-04-07T20:28:18.445Z,97311.70
2018-04-07T20:30:47.472Z,97315.25
2018-04-07T20:33:15.740Z,97313.38
2018-04-07T20:35:44.012Z,97319.66
2018-04-07T20:38:12.310Z,97320.83
2018-04-07T20:40:40.564Z,97312.36
2018-04-07T20:43:14.568Z,97315.31
2018-04-07T20:45:42.808Z,97319.31
2018-04-07T20:48:11.075Z,97321.09
2018-04-07T20:50:39.332Z,97321.88
2018-04-07T20:53:07.600Z,97323.17
2018-04-07T20:55:36.617Z,97319.69
2018-04-07T20:58:04.884Z,97313.98
2018-04-07T21:00:33.141Z,97321.48
2018-04-07T21:03:01.417Z,97312.59
2018-04-07T21:05:29.661Z,97311.17
2018-04-07T21:07:59.280Z,97310.91
2018-04-07T21:10:28.654Z,97302.77
2018-04-07T21:12:57.001Z,97301.96
2018-04-07T21:17:51.332Z,97306.16
2018-04-07T21:20:19.629Z,97305.08
2018-04-07T21:22:47.886Z,97314.45
2018-04-07T21:25:16.915Z,97307.03
2018-04-07T21:27:45.176Z,97306.05
2018-04-07T21:30:14.987Z,97301.02
2018-04-07T21:32:44.771Z,97298.38
2018-04-07T21:35:13.036Z,97292.58
2018-04-07T21:37:42.275Z,97294.00
2018-04-07T21:40:10.525Z,97289.69
2018-04-07T21:42:39.565Z,97292.12
2018-04-07T21:45:07.816Z,97295.20
2018-04-07T21:47:36.821Z,97289.22
2018-04-07T21:50:05.874Z,97284.36
2018-04-07T21:52:34.150Z,97287.11
2018-04-07T21:55:02.428Z,97283.27
2018-04-07T21:57:31.438Z,97279.45
2018-04-07T21:59:59.704Z,97280.92
2018-04-07T22:02:28.715Z,97279.81
2018-04-07T22:04:57.742Z,97278.27
2018-04-07T22:07:25.996Z,97283.30
2018-04-07T22:09:55.760Z,97275.43
2018-04-07T22:12:24.013Z,97277.00
2018-04-07T22:14:53.084Z,97274.45
2018-04-07T22:17:21.358Z,97270.67
2018-04-07T22:19:50.398Z,97268.80
2018-04-07T22:22:18.646Z,97268.03
2018-04-07T22:24:46.910Z,97265.86
2018-04-07T22:27:15.158Z,97259.95
2018-04-07T22:29:43.647Z,97266.34
2018-04-07T22:32:11.917Z,97267.91
2018-04-07T22:34:40.173Z,97270.58
2018-04-07T22:37:09.188Z,97270.74
2018-04-07T22:39:37.453Z,97276.84
2018-04-07T22:42:06.499Z,97274.69
2018-04-07T22:44:34.777Z,97268.65
2018-04-07T22:47:03.024Z,97271.78
2018-04-07T22:49:32.050Z,97263.76
2018-04-07T22:52:01.088Z,97270.38
2018-04-07T22:54:29.373Z,97267.09
2018-04-07T22:56:57.632Z,97270.42
2018-04-07T22:59:27.247Z,97267.22
2018-04-07T23:01:57.021Z,97273.89
2018-04-07T23:04:25.282Z,97258.44
2018-04-07T23:06:54.326Z,97264.05
2018-04-07T23:09:22.565Z,97264.84
2018-04-07T23:11:51.601Z,97260.31
2018-04-07T23:14:19.853Z,97257.92
2018-04-07T23:16:48.116Z,97259.52
2018-04-07T23:19:16.385Z,97263.91
2018-04-07T23:21:44.667Z,97265.70
2018-04-07T23:24:12.921Z,97259.53
2018-04-07T23:26:41.972Z,97261.39
2018-04-07T23:29:10.213Z,97262.72
2018-04-07T23:31:38.477Z,97265.34
2018-04-07T23:34:06.721Z,97257.47
2018-04-07T23:36:34.981Z,97253.00
2018-04-07T23:39:04.007Z,97253.80
2018-04-07T23:41:32.297Z,97258.95
2018-04-07T23:44:00.546Z,97255.36
2018-04-07T23:46:28.813Z,97275.26
2018-04-07T23:48:57.070Z,97256.03
2018-04-07T23:51:25.321Z,97255.67
2018-04-07T23:53:54.333Z,97258.17
2018-04-07T23:56:23.369Z,97251.08
2018-04-07T23:58:51.596Z,97246.16
